sensor_id;sensor_type;location;lat;lon;timestamp;temperature;humidity
9662;DHT22;24982;52.344;12.990;2023-05-10T00:00:26;14.90;99.90
9662;DHT22;24982;52.344;12.990;2023-05-10T00:03:28;14.90;99.90
9662;DHT22;24982;52.344;12.990;2023-05-10T00:06:30;14.90;99.90
9662;DHT22;24982;52.344;12.990;2023-05-10T00:09:33;14.90;99.90
9662;DHT22;24982;52.344;12.990;2023-05-10T00:12:35;14.90;99.90
9662;DHT22;24982;52.344;12.990;2023-05-10T00:15:37;14.80;99.90
9662;DHT22;24982;52.344;12.990;2023-05-10T00:18:39;14.90;99.90
9662;DHT22;24982;52.344;12.990;2023-05-10T00:21:41;14.70;99.90
9662;DHT22;24982;52.344;12.990;2023-05-10T00:24:44;14.70;99.90
9662;DHT22;24982;52.344;12.990;2023-05-10T00:27:46;14.60;99.90
9662;DHT22;24982;52.344;12.990;2023-05-10T00:30:48;14.70;99.90
9662;DHT22;24982;52.344;12.990;2023-05-10T00:33:50;14.70;99.90
9662;DHT22;24982;52.344;12.990;2023-05-10T00:36:52;14.60;99.90
9662;DHT22;24982;52.344;12.990;2023-05-10T00:39:55;14.60;99.90
9662;DHT22;24982;52.344;12.990;2023-05-10T00:42:57;14.50;99.90
9662;DHT22;24982;52.344;12.990;2023-05-10T00:46:00;14.50;99.90
9662;DHT22;24982;52.344;12.990;2023-05-10T00:49:02;14.50;99.90
9662;DHT22;24982;52.344;12.990;2023-05-10T00:52:05;14.40;99.90
9662;DHT22;24982;52.344;12.990;2023-05-10T00:55:09;14.40;99.90
9662;DHT22;24982;52.344;12.990;2023-05-10T00:58:12;14.40;99.90
9662;DHT22;24982;52.344;12.990;2023-05-10T01:01:14;14.40;99.90
9662;DHT22;24982;52.344;12.990;2023-05-10T01:04:16;14.30;99.90
9662;DHT22;24982;52.344;12.990;2023-05-10T01:07:20;14.30;99.90
9662;DHT22;24982;52.344;12.990;2023-05-10T01:10:24;14.30;99.90
9662;DHT22;24982;52.344;12.990;2023-05-10T01:13:31;14.30;99.90
9662;DHT22;24982;52.344;12.990;2023-05-10T01:16:37;14.30;99.90
9662;DHT22;24982;52.344;12.990;2023-05-10T01:19:40;14.30;99.90
9662;DHT22;24982;52.344;12.990;2023-05-10T01:22:58;14.20;99.90
9662;DHT22;24982;52.344;12.990;2023-05-10T01:26:38;14.30;99.90
9662;DHT22;24982;52.344;12.990;2023-05-10T01:29:59;14.20;99.90
9662;DHT22;24982;52.344;12.990;2023-05-10T01:33:11;14.20;99.90
9662;DHT22;24982;52.344;12.990;2023-05-10T01:36:23;14.20;99.90
9662;DHT22;24982;52.344;12.990;2023-05-10T01:39:32;14.20;99.90
9662;DHT22;24982;52.344;12.990;2023-05-10T01:42:39;14.10;99.90
9662;DHT22;24982;52.344;12.990;2023-05-10T01:45:49;14.00;99.90
9662;DHT22;24982;52.344;12.990;2023-05-10T01:48:55;13.90;99.90
9662;DHT22;24982;52.344;12.990;2023-05-10T01:52:03;14.00;99.90
9662;DHT22;24982;52.344;12.990;2023-05-10T01:55:10;14.00;99.90
9662;DHT22;24982;52.344;12.990;2023-05-10T01:58:15;14.00;99.90
9662;DHT22;24982;52.344;12.990;2023-05-10T02:01:20;14.00;99.90
9662;DHT22;24982;52.344;12.990;2023-05-10T02:04:23;13.90;99.90
9662;DHT22;24982;52.344;12.990;2023-05-10T02:07:27;13.90;99.90
9662;DHT22;24982;52.344;12.990;2023-05-10T02:10:30;13.90;99.90
9662;DHT22;24982;52.344;12.990;2023-05-10T02:13:34;13.90;99.90
9662;DHT22;24982;52.344;12.990;2023-05-10T02:16:38;13.90;99.90
9662;DHT22;24982;52.344;12.990;2023-05-10T02:19:42;13.80;99.90
9662;DHT22;24982;52.344;12.990;2023-05-10T02:22:45;13.70;99.90
9662;DHT22;24982;52.344;12.990;2023-05-10T02:25:49;13.70;99.90
9662;DHT22;24982;52.344;12.990;2023-05-10T02:28:56;13.70;99.90
9662;DHT22;24982;52.344;12.990;2023-05-10T02:31:59;13.70;99.90
9662;DHT22;24982;52.344;12.990;2023-05-10T02:35:04;13.70;99.90
9662;DHT22;24982;52.344;12.990;2023-05-10T02:38:07;13.60;99.90
9662;DHT22;24982;52.344;12.990;2023-05-10T02:41:11;13.60;99.90
9662;DHT22;24982;52.344;12.990;2023-05-10T02:44:15;13.60;99.90
9662;DHT22;24982;52.344;12.990;2023-05-10T02:47:21;13.60;99.90
9662;DHT22;24982;52.344;12.990;2023-05-10T02:50:26;13.60;99.90
9662;DHT22;24982;52.344;12.990;2023-05-10T02:53:31;13.50;99.90
9662;DHT22;24982;52.344;12.990;2023-05-10T02:56:36;13.50;99.90
9662;DHT22;24982;52.344;12.990;2023-05-10T02:59:42;13.40;99.90
9662;DHT22;24982;52.344;12.990;2023-05-10T03:02:45;13.40;99.90
9662;DHT22;24982;52.344;12.990;2023-05-10T03:05:49;13.30;99.90
9662;DHT22;24982;52.344;12.990;2023-05-10T03:08:51;13.40;99.90
9662;DHT22;24982;52.344;12.990;2023-05-10T03:11:59;13.30;99.90
9662;DHT22;24982;52.344;12.990;2023-05-10T03:15:09;13.30;99.90
9662;DHT22;24982;52.344;12.990;2023-05-10T03:18:16;13.20;99.90
9662;DHT22;24982;52.344;12.990;2023-05-10T03:21:23;13.20;99.90
9662;DHT22;24982;52.344;12.990;2023-05-10T03:24:28;13.20;99.90
9662;DHT22;24982;52.344;12.990;2023-05-10T03:27:35;13.20;99.90
9662;DHT22;24982;52.344;12.990;2023-05-10T03:30:38;13.20;99.90
9662;DHT22;24982;52.344;12.990;2023-05-10T03:33:46;13.20;99.90
9662;DHT22;24982;52.344;12.990;2023-05-10T03:36:51;13.20;99.90
9662;DHT22;24982;52.344;12.990;2023-05-10T03:39:53;13.10;99.90
9662;DHT22;24982;52.344;12.990;2023-05-10T03:42:56;13.10;99.90
9662;DHT22;24982;52.344;12.990;2023-05-10T03:45:57;13.10;99.90
9662;DHT22;24982;52.344;12.990;2023-05-10T03:48:59;13.10;99.90
9662;DHT22;24982;52.344;12.990;2023-05-10T03:52:03;13.10;99.90
9662;DHT22;24982;52.344;12.990;2023-05-10T03:55:12;13.00;99.90
9662;DHT22;24982;52.344;12.990;2023-05-10T03:58:14;13.00;99.90
9662;DHT22;24982;52.344;12.990;2023-05-10T04:01:16;13.00;99.90
9662;DHT22;24982;52.344;12.990;2023-05-10T04:04:18;13.10;99.90
9662;DHT22;24982;52.344;12.990;2023-05-10T04:07:25;13.00;99.90
9662;DHT22;24982;52.344;12.990;2023-05-10T04:10:27;13.00;99.90
9662;DHT22;24982;52.344;12.990;2023-05-10T04:13:29;13.00;99.90
9662;DHT22;24982;52.344;12.990;2023-05-10T04:16:31;13.00;99.90
9662;DHT22;24982;52.344;12.990;2023-05-10T04:19:33;13.00;99.90
9662;DHT22;24982;52.344;12.990;2023-05-10T04:22:37;12.90;99.90
9662;DHT22;24982;52.344;12.990;2023-05-10T04:25:40;13.00;99.90
9662;DHT22;24982;52.344;12.990;2023-05-10T04:28:42;13.00;99.90
9662;DHT22;24982;52.344;12.990;2023-05-10T04:31:44;13.10;99.90
9662;DHT22;24982;52.344;12.990;2023-05-10T04:34:46;13.00;99.90
9662;DHT22;24982;52.344;12.990;2023-05-10T04:37:49;13.10;99.90
9662;DHT22;24982;52.344;12.990;2023-05-10T04:40:51;13.10;99.90
9662;DHT22;24982;52.344;12.990;2023-05-10T04:43:53;13.10;99.90
9662;DHT22;24982;52.344;12.990;2023-05-10T04:46:55;13.10;99.90
9662;DHT22;24982;52.344;12.990;2023-05-10T04:49:57;13.10;99.90
9662;DHT22;24982;52.344;12.990;2023-05-10T04:53:01;13.20;99.90
9662;DHT22;24982;52.344;12.990;2023-05-10T04:56:03;13.40;99.90
9662;DHT22;24982;52.344;12.990;2023-05-10T04:59:05;13.40;99.90
9662;DHT22;24982;52.344;12.990;2023-05-10T05:02:07;13.10;99.90
9662;DHT22;24982;52.344;12.990;2023-05-10T05:05:09;12.90;99.90
9662;DHT22;24982;52.344;12.990;2023-05-10T05:08:13;13.20;99.90
9662;DHT22;24982;52.344;12.990;2023-05-10T05:11:15;13.30;99.90
9662;DHT22;24982;52.344;12.990;2023-05-10T05:14:17;13.30;99.90
9662;DHT22;24982;52.344;12.990;2023-05-10T05:17:21;13.20;99.90
9662;DHT22;24982;52.344;12.990;2023-05-10T05:20:23;13.20;99.90
9662;DHT22;24982;52.344;12.990;2023-05-10T05:23:26;13.40;99.90
9662;DHT22;24982;52.344;12.990;2023-05-10T05:26:28;13.40;99.90
9662;DHT22;24982;52.344;12.990;2023-05-10T05:29:30;13.40;99.90
9662;DHT22;24982;52.344;12.990;2023-05-10T05:32:32;13.50;99.90
9662;DHT22;24982;52.344;12.990;2023-05-10T05:35:34;13.40;99.90
9662;DHT22;24982;52.344;12.990;2023-05-10T05:38:38;13.60;99.90
9662;DHT22;24982;52.344;12.990;2023-05-10T05:41:40;13.60;99.90
9662;DHT22;24982;52.344;12.990;2023-05-10T05:44:42;13.70;99.90
9662;DHT22;24982;52.344;12.990;2023-05-10T05:47:44;13.70;99.90
9662;DHT22;24982;52.344;12.990;2023-05-10T05:50:46;13.80;99.90
9662;DHT22;24982;52.344;12.990;2023-05-10T05:53:49;13.80;99.90
9662;DHT22;24982;52.344;12.990;2023-05-10T05:56:54;13.80;99.90
9662;DHT22;24982;52.344;12.990;2023-05-10T05:59:56;13.80;99.90
9662;DHT22;24982;52.344;12.990;2023-05-10T06:02:58;13.90;99.90
9662;DHT22;24982;52.344;12.990;2023-05-10T06:05:59;14.00;99.90
9662;DHT22;24982;52.344;12.990;2023-05-10T06:09:04;14.10;99.90
9662;DHT22;24982;52.344;12.990;2023-05-10T06:12:06;14.10;99.90
9662;DHT22;24982;52.344;12.990;2023-05-10T06:15:09;14.20;99.90
9662;DHT22;24982;52.344;12.990;2023-05-10T06:18:11;14.30;99.90
9662;DHT22;24982;52.344;12.990;2023-05-10T06:21:13;14.40;99.90
9662;DHT22;24982;52.344;12.990;2023-05-10T06:24:17;14.50;99.90
9662;DHT22;24982;52.344;12.990;2023-05-10T06:27:18;14.50;99.90
9662;DHT22;24982;52.344;12.990;2023-05-10T06:30:20;14.60;99.90
9662;DHT22;24982;52.344;12.990;2023-05-10T06:33:23;14.70;99.90
9662;DHT22;24982;52.344;12.990;2023-05-10T06:36:25;14.80;99.90
9662;DHT22;24982;52.344;12.990;2023-05-10T06:39:29;14.80;99.90
9662;DHT22;24982;52.344;12.990;2023-05-10T06:42:31;14.80;99.90
9662;DHT22;24982;52.344;12.990;2023-05-10T06:45:33;14.90;99.90
9662;DHT22;24982;52.344;12.990;2023-05-10T06:48:34;14.90;99.90
9662;DHT22;24982;52.344;12.990;2023-05-10T06:51:36;14.90;99.90
9662;DHT22;24982;52.344;12.990;2023-05-10T06:54:40;15.10;99.90
9662;DHT22;24982;52.344;12.990;2023-05-10T06:57:42;15.10;99.90
9662;DHT22;24982;52.344;12.990;2023-05-10T07:00:44;15.10;99.90
9662;DHT22;24982;52.344;12.990;2023-05-10T07:03:47;15.20;99.90
9662;DHT22;24982;52.344;12.990;2023-05-10T07:06:49;15.40;99.90
9662;DHT22;24982;52.344;12.990;2023-05-10T07:09:52;15.50;99.90
9662;DHT22;24982;52.344;12.990;2023-05-10T07:12:54;15.60;99.90
9662;DHT22;24982;52.344;12.990;2023-05-10T07:15:56;15.60;99.90
9662;DHT22;24982;52.344;12.990;2023-05-10T07:18:58;15.70;99.90
9662;DHT22;24982;52.344;12.990;2023-05-10T07:22:00;15.70;99.90
9662;DHT22;24982;52.344;12.990;2023-05-10T07:25:04;15.70;99.90
9662;DHT22;24982;52.344;12.990;2023-05-10T07:28:06;15.80;99.90
9662;DHT22;24982;52.344;12.990;2023-05-10T07:31:08;15.70;99.90
9662;DHT22;24982;52.344;12.990;2023-05-10T07:34:10;15.90;99.90
9662;DHT22;24982;52.344;12.990;2023-05-10T07:37:13;16.00;99.90
9662;DHT22;24982;52.344;12.990;2023-05-10T07:40:16;16.20;99.90
9662;DHT22;24982;52.344;12.990;2023-05-10T07:43:18;16.20;99.90
9662;DHT22;24982;52.344;12.990;2023-05-10T07:46:20;16.30;99.90
9662;DHT22;24982;52.344;12.990;2023-05-10T07:49:22;16.40;99.90
9662;DHT22;24982;52.344;12.990;2023-05-10T07:52:25;16.60;99.90
9662;DHT22;24982;52.344;12.990;2023-05-10T07:55:29;16.80;99.90
9662;DHT22;24982;52.344;12.990;2023-05-10T07:58:31;16.80;99.90
9662;DHT22;24982;52.344;12.990;2023-05-10T08:01:34;17.00;99.90
9662;DHT22;24982;52.344;12.990;2023-05-10T08:04:35;16.90;99.90
9662;DHT22;24982;52.344;12.990;2023-05-10T08:07:37;17.10;99.90
9662;DHT22;24982;52.344;12.990;2023-05-10T08:10:41;17.20;99.90
9662;DHT22;24982;52.344;12.990;2023-05-10T08:13:43;17.20;99.90
9662;DHT22;24982;52.344;12.990;2023-05-10T08:16:46;17.10;99.90
9662;DHT22;24982;52.344;12.990;2023-05-10T08:19:48;17.30;99.90
9662;DHT22;24982;52.344;12.990;2023-05-10T08:22:50;17.50;99.90
9662;DHT22;24982;52.344;12.990;2023-05-10T08:25:53;17.60;99.90
9662;DHT22;24982;52.344;12.990;2023-05-10T08:28:55;17.70;99.90
9662;DHT22;24982;52.344;12.990;2023-05-10T08:31:57;17.90;99.90
9662;DHT22;24982;52.344;12.990;2023-05-10T08:35:00;17.50;99.90
9662;DHT22;24982;52.344;12.990;2023-05-10T08:38:02;18.10;99.90
9662;DHT22;24982;52.344;12.990;2023-05-10T08:41:05;18.20;99.90
9662;DHT22;24982;52.344;12.990;2023-05-10T08:44:08;18.30;99.90
9662;DHT22;24982;52.344;12.990;2023-05-10T08:47:10;18.50;99.90
9662;DHT22;24982;52.344;12.990;2023-05-10T08:50:13;18.50;99.90
9662;DHT22;24982;52.344;12.990;2023-05-10T08:53:16;18.50;99.90
9662;DHT22;24982;52.344;12.990;2023-05-10T08:56:20;18.60;99.90
9662;DHT22;24982;52.344;12.990;2023-05-10T08:59:22;18.80;99.90
9662;DHT22;24982;52.344;12.990;2023-05-10T09:02:25;19.00;99.90
9662;DHT22;24982;52.344;12.990;2023-05-10T09:05:27;19.30;99.90
9662;DHT22;24982;52.344;12.990;2023-05-10T09:08:29;19.50;99.90
9662;DHT22;24982;52.344;12.990;2023-05-10T09:11:33;19.50;99.90
9662;DHT22;24982;52.344;12.990;2023-05-10T09:14:36;19.50;99.90
9662;DHT22;24982;52.344;12.990;2023-05-10T09:17:38;19.60;99.90
9662;DHT22;24982;52.344;12.990;2023-05-10T09:20:42;19.80;99.90
9662;DHT22;24982;52.344;12.990;2023-05-10T09:23:44;19.80;99.90
9662;DHT22;24982;52.344;12.990;2023-05-10T09:26:48;19.90;99.90
9662;DHT22;24982;52.344;12.990;2023-05-10T09:29:50;19.90;99.90
9662;DHT22;24982;52.344;12.990;2023-05-10T09:32:56;20.20;99.90
9662;DHT22;24982;52.344;12.990;2023-05-10T09:36:06;20.20;99.90
9662;DHT22;24982;52.344;12.990;2023-05-10T09:39:09;20.40;99.90
9662;DHT22;24982;52.344;12.990;2023-05-10T09:42:12;20.60;99.90
9662;DHT22;24982;52.344;12.990;2023-05-10T09:45:14;20.80;99.90
9662;DHT22;24982;52.344;12.990;2023-05-10T09:48:16;20.80;99.90
9662;DHT22;24982;52.344;12.990;2023-05-10T09:51:21;20.90;99.90
9662;DHT22;24982;52.344;12.990;2023-05-10T09:54:23;21.10;99.90
9662;DHT22;24982;52.344;12.990;2023-05-10T09:57:27;21.30;99.90
9662;DHT22;24982;52.344;12.990;2023-05-10T10:00:35;21.50;99.90
9662;DHT22;24982;52.344;12.990;2023-05-10T10:03:42;22.00;99.90
9662;DHT22;24982;52.344;12.990;2023-05-10T10:06:44;22.40;99.90
9662;DHT22;24982;52.344;12.990;2023-05-10T10:09:46;22.50;99.90
9662;DHT22;24982;52.344;12.990;2023-05-10T10:12:49;22.50;99.90
9662;DHT22;24982;52.344;12.990;2023-05-10T10:15:52;22.90;99.90
9662;DHT22;24982;52.344;12.990;2023-05-10T10:18:55;22.80;99.90
9662;DHT22;24982;52.344;12.990;2023-05-10T10:21:57;23.00;99.90
9662;DHT22;24982;52.344;12.990;2023-05-10T10:24:59;23.00;99.90
9662;DHT22;24982;52.344;12.990;2023-05-10T10:28:12;22.80;99.90
9662;DHT22;24982;52.344;12.990;2023-05-10T10:31:25;22.80;99.90
9662;DHT22;24982;52.344;12.990;2023-05-10T10:34:29;23.00;99.90
9662;DHT22;24982;52.344;12.990;2023-05-10T10:37:43;23.00;99.80
9662;DHT22;24982;52.344;12.990;2023-05-10T10:40:47;23.10;99.90
9662;DHT22;24982;52.344;12.990;2023-05-10T10:44:23;23.50;99.80
9662;DHT22;24982;52.344;12.990;2023-05-10T10:47:28;23.70;99.90
9662;DHT22;24982;52.344;12.990;2023-05-10T10:50:43;24.10;99.90
9662;DHT22;24982;52.344;12.990;2023-05-10T10:53:48;24.40;99.90
9662;DHT22;24982;52.344;12.990;2023-05-10T11:06:30;24.40;88.30
9662;DHT22;24982;52.344;12.990;2023-05-10T11:09:39;24.40;90.20
9662;DHT22;24982;52.344;12.990;2023-05-10T11:12:51;24.30;90.00
9662;DHT22;24982;52.344;12.990;2023-05-10T11:15:55;24.20;89.70
9662;DHT22;24982;52.344;12.990;2023-05-10T11:19:00;24.40;91.20
9662;DHT22;24982;52.344;12.990;2023-05-10T11:22:21;24.80;90.60
9662;DHT22;24982;52.344;12.990;2023-05-10T11:25:27;25.10;90.40
9662;DHT22;24982;52.344;12.990;2023-05-10T11:28:29;25.50;91.40
9662;DHT22;24982;52.344;12.990;2023-05-10T11:31:33;25.70;90.70
9662;DHT22;24982;52.344;12.990;2023-05-10T11:34:35;25.40;92.10
9662;DHT22;24982;52.344;12.990;2023-05-10T11:37:41;25.60;91.00
9662;DHT22;24982;52.344;12.990;2023-05-10T11:40:44;25.90;91.70
9662;DHT22;24982;52.344;12.990;2023-05-10T11:43:47;25.90;90.10
9662;DHT22;24982;52.344;12.990;2023-05-10T11:46:52;26.00;91.60
9662;DHT22;24982;52.344;12.990;2023-05-10T11:49:54;25.70;90.70
9662;DHT22;24982;52.344;12.990;2023-05-10T11:52:56;25.80;90.60
9662;DHT22;24982;52.344;12.990;2023-05-10T11:56:03;26.00;88.40
9662;DHT22;24982;52.344;12.990;2023-05-10T11:59:06;26.00;91.10
9662;DHT22;24982;52.344;12.990;2023-05-10T12:02:10;26.00;87.40
9662;DHT22;24982;52.344;12.990;2023-05-10T12:05:13;25.90;90.70
9662;DHT22;24982;52.344;12.990;2023-05-10T12:08:19;26.00;88.80
9662;DHT22;24982;52.344;12.990;2023-05-10T12:11:24;26.20;90.40
9662;DHT22;24982;52.344;12.990;2023-05-10T12:14:27;26.30;90.50
9662;DHT22;24982;52.344;12.990;2023-05-10T12:17:37;26.30;90.10
9662;DHT22;24982;52.344;12.990;2023-05-10T12:20:40;26.30;89.30
9662;DHT22;24982;52.344;12.990;2023-05-10T12:23:42;26.40;88.90
9662;DHT22;24982;52.344;12.990;2023-05-10T12:26:47;26.60;88.60
9662;DHT22;24982;52.344;12.990;2023-05-10T12:29:48;26.50;83.70
9662;DHT22;24982;52.344;12.990;2023-05-10T12:32:53;26.50;85.20
9662;DHT22;24982;52.344;12.990;2023-05-10T12:35:55;26.20;84.70
9662;DHT22;24982;52.344;12.990;2023-05-10T12:39:02;26.20;83.60
9662;DHT22;24982;52.344;12.990;2023-05-10T12:42:05;26.10;85.70
9662;DHT22;24982;52.344;12.990;2023-05-10T12:45:08;25.90;82.80
9662;DHT22;24982;52.344;12.990;2023-05-10T12:48:12;25.80;84.30
9662;DHT22;24982;52.344;12.990;2023-05-10T12:51:13;25.50;83.70
9662;DHT22;24982;52.344;12.990;2023-05-10T12:54:19;25.40;85.00
9662;DHT22;24982;52.344;12.990;2023-05-10T12:57:21;25.20;87.00
9662;DHT22;24982;52.344;12.990;2023-05-10T13:00:24;25.10;85.20
9662;DHT22;24982;52.344;12.990;2023-05-10T13:03:27;25.10;86.80
9662;DHT22;24982;52.344;12.990;2023-05-10T13:06:29;25.30;83.70
9662;DHT22;24982;52.344;12.990;2023-05-10T13:09:31;25.10;83.90
9662;DHT22;24982;52.344;12.990;2023-05-10T13:12:33;25.00;83.80
9662;DHT22;24982;52.344;12.990;2023-05-10T13:15:35;24.80;86.00
9662;DHT22;24982;52.344;12.990;2023-05-10T13:18:38;25.00;85.30
9662;DHT22;24982;52.344;12.990;2023-05-10T13:21:41;24.80;87.10
9662;DHT22;24982;52.344;12.990;2023-05-10T13:24:43;24.80;86.90
9662;DHT22;24982;52.344;12.990;2023-05-10T13:27:45;24.50;87.10
9662;DHT22;24982;52.344;12.990;2023-05-10T13:30:47;24.40;88.00
9662;DHT22;24982;52.344;12.990;2023-05-10T13:33:50;24.40;86.10
9662;DHT22;24982;52.344;12.990;2023-05-10T13:36:52;24.30;85.90
9662;DHT22;24982;52.344;12.990;2023-05-10T13:39:56;24.30;85.30
9662;DHT22;24982;52.344;12.990;2023-05-10T13:42:58;24.20;85.80
9662;DHT22;24982;52.344;12.990;2023-05-10T13:46:00;24.20;86.40
9662;DHT22;24982;52.344;12.990;2023-05-10T13:49:03;24.00;87.60
9662;DHT22;24982;52.344;12.990;2023-05-10T13:52:05;24.00;88.60
9662;DHT22;24982;52.344;12.990;2023-05-10T13:55:08;23.90;88.90
9662;DHT22;24982;52.344;12.990;2023-05-10T13:58:10;23.90;90.30
9662;DHT22;24982;52.344;12.990;2023-05-10T14:01:12;23.80;90.70
9662;DHT22;24982;52.344;12.990;2023-05-10T14:04:15;23.80;91.00
9662;DHT22;24982;52.344;12.990;2023-05-10T14:07:17;23.60;90.00
9662;DHT22;24982;52.344;12.990;2023-05-10T14:10:19;23.50;90.50
9662;DHT22;24982;52.344;12.990;2023-05-10T14:13:21;23.50;90.90
9662;DHT22;24982;52.344;12.990;2023-05-10T14:16:23;23.50;90.60
9662;DHT22;24982;52.344;12.990;2023-05-10T14:19:30;23.50;90.40
9662;DHT22;24982;52.344;12.990;2023-05-10T14:22:33;23.50;90.40
9662;DHT22;24982;52.344;12.990;2023-05-10T14:25:35;23.30;90.60
9662;DHT22;24982;52.344;12.990;2023-05-10T14:28:38;23.20;90.10
9662;DHT22;24982;52.344;12.990;2023-05-10T14:31:40;23.00;90.30
9662;DHT22;24982;52.344;12.990;2023-05-10T14:34:44;23.00;92.30
9662;DHT22;24982;52.344;12.990;2023-05-10T14:37:46;22.90;92.40
9662;DHT22;24982;52.344;12.990;2023-05-10T14:40:48;23.00;91.90
9662;DHT22;24982;52.344;12.990;2023-05-10T14:43:50;22.90;92.30
9662;DHT22;24982;52.344;12.990;2023-05-10T14:46:52;22.90;94.60
9662;DHT22;24982;52.344;12.990;2023-05-10T14:49:55;22.70;96.70
9662;DHT22;24982;52.344;12.990;2023-05-10T14:52:58;22.70;98.60
9662;DHT22;24982;52.344;12.990;2023-05-10T14:56:00;22.50;99.80
9662;DHT22;24982;52.344;12.990;2023-05-10T14:59:03;22.40;99.50
9662;DHT22;24982;52.344;12.990;2023-05-10T15:02:06;22.30;99.90
9662;DHT22;24982;52.344;12.990;2023-05-10T15:05:10;22.10;99.90
9662;DHT22;24982;52.344;12.990;2023-05-10T15:08:12;22.00;99.90
9662;DHT22;24982;52.344;12.990;2023-05-10T15:11:14;21.90;99.90
9662;DHT22;24982;52.344;12.990;2023-05-10T15:14:16;21.70;99.90
9662;DHT22;24982;52.344;12.990;2023-05-10T15:17:18;21.70;99.90
9662;DHT22;24982;52.344;12.990;2023-05-10T15:20:21;21.60;99.90
9662;DHT22;24982;52.344;12.990;2023-05-10T15:23:23;21.60;99.90
9662;DHT22;24982;52.344;12.990;2023-05-10T15:26:25;21.50;99.90
9662;DHT22;24982;52.344;12.990;2023-05-10T15:29:27;21.40;99.90
9662;DHT22;24982;52.344;12.990;2023-05-10T15:32:30;21.40;99.90
9662;DHT22;24982;52.344;12.990;2023-05-10T15:35:33;21.30;99.90
9662;DHT22;24982;52.344;12.990;2023-05-10T15:38:37;21.40;99.90
9662;DHT22;24982;52.344;12.990;2023-05-10T15:41:39;21.40;99.90
9662;DHT22;24982;52.344;12.990;2023-05-10T15:44:41;21.40;99.90
9662;DHT22;24982;52.344;12.990;2023-05-10T15:47:45;21.30;99.90
9662;DHT22;24982;52.344;12.990;2023-05-10T15:50:48;21.30;99.90
9662;DHT22;24982;52.344;12.990;2023-05-10T15:53:50;21.40;99.90
9662;DHT22;24982;52.344;12.990;2023-05-10T15:56:52;21.10;99.90
9662;DHT22;24982;52.344;12.990;2023-05-10T15:59:54;21.00;99.90
9662;DHT22;24982;52.344;12.990;2023-05-10T16:02:57;21.20;99.90
9662;DHT22;24982;52.344;12.990;2023-05-10T16:06:01;21.10;99.90
9662;DHT22;24982;52.344;12.990;2023-05-10T16:09:03;20.90;99.90
9662;DHT22;24982;52.344;12.990;2023-05-10T16:12:05;21.10;99.90
9662;DHT22;24982;52.344;12.990;2023-05-10T16:15:08;20.90;99.90
9662;DHT22;24982;52.344;12.990;2023-05-10T16:18:10;20.90;99.90
9662;DHT22;24982;52.344;12.990;2023-05-10T16:21:14;20.80;99.90
9662;DHT22;24982;52.344;12.990;2023-05-10T16:24:16;20.80;99.90
9662;DHT22;24982;52.344;12.990;2023-05-10T16:27:18;20.70;99.90
9662;DHT22;24982;52.344;12.990;2023-05-10T16:30:20;20.80;99.90
9662;DHT22;24982;52.344;12.990;2023-05-10T16:33:24;20.70;99.90
9662;DHT22;24982;52.344;12.990;2023-05-10T16:36:27;20.60;99.90
9662;DHT22;24982;52.344;12.990;2023-05-10T16:39:29;20.50;99.90
9662;DHT22;24982;52.344;12.990;2023-05-10T16:42:31;20.50;99.90
9662;DHT22;24982;52.344;12.990;2023-05-10T16:45:33;20.50;99.90
9662;DHT22;24982;52.344;12.990;2023-05-10T16:48:35;20.40;99.90
9662;DHT22;24982;52.344;12.990;2023-05-10T16:51:39;20.40;99.90
9662;DHT22;24982;52.344;12.990;2023-05-10T16:54:41;20.40;99.90
9662;DHT22;24982;52.344;12.990;2023-05-10T16:57:42;20.40;99.90
9662;DHT22;24982;52.344;12.990;2023-05-10T17:00:45;20.40;99.90
9662;DHT22;24982;52.344;12.990;2023-05-10T17:03:47;20.40;99.90
9662;DHT22;24982;52.344;12.990;2023-05-10T17:06:50;20.40;99.90
9662;DHT22;24982;52.344;12.990;2023-05-10T17:09:52;20.40;99.90
9662;DHT22;24982;52.344;12.990;2023-05-10T17:12:54;20.50;99.90
9662;DHT22;24982;52.344;12.990;2023-05-10T17:15:56;20.40;99.90
9662;DHT22;24982;52.344;12.990;2023-05-10T17:18:58;20.30;99.90
9662;DHT22;24982;52.344;12.990;2023-05-10T17:22:02;20.30;99.90
9662;DHT22;24982;52.344;12.990;2023-05-10T17:25:05;20.30;99.90
9662;DHT22;24982;52.344;12.990;2023-05-10T17:28:07;20.20;99.90
9662;DHT22;24982;52.344;12.990;2023-05-10T17:31:10;20.30;99.90
9662;DHT22;24982;52.344;12.990;2023-05-10T17:34:12;20.10;99.90
9662;DHT22;24982;52.344;12.990;2023-05-10T17:37:15;20.10;99.90
9662;DHT22;24982;52.344;12.990;2023-05-10T17:40:19;20.10;99.90
9662;DHT22;24982;52.344;12.990;2023-05-10T17:43:22;20.00;99.90
9662;DHT22;24982;52.344;12.990;2023-05-10T17:46:25;20.00;99.90
9662;DHT22;24982;52.344;12.990;2023-05-10T17:49:27;19.90;99.90
9662;DHT22;24982;52.344;12.990;2023-05-10T17:52:34;19.60;99.90
9662;DHT22;24982;52.344;12.990;2023-05-10T17:55:39;19.90;99.90
9662;DHT22;24982;52.344;12.990;2023-05-10T17:58:41;19.80;99.90
9662;DHT22;24982;52.344;12.990;2023-05-10T18:01:43;19.80;99.90
9662;DHT22;24982;52.344;12.990;2023-05-10T18:04:45;19.70;99.90
9662;DHT22;24982;52.344;12.990;2023-05-10T18:07:50;19.80;99.90
9662;DHT22;24982;52.344;12.990;2023-05-10T18:10:52;19.70;99.90
9662;DHT22;24982;52.344;12.990;2023-05-10T18:13:54;19.80;99.90
9662;DHT22;24982;52.344;12.990;2023-05-10T18:16:56;19.70;99.90
9662;DHT22;24982;52.344;12.990;2023-05-10T18:19:58;19.60;99.90
9662;DHT22;24982;52.344;12.990;2023-05-10T18:23:01;19.50;99.90
9662;DHT22;24982;52.344;12.990;2023-05-10T18:26:03;19.50;99.90
9662;DHT22;24982;52.344;12.990;2023-05-10T18:29:06;19.40;99.90
9662;DHT22;24982;52.344;12.990;2023-05-10T18:32:08;19.40;99.90
9662;DHT22;24982;52.344;12.990;2023-05-10T18:35:10;19.30;99.90
9662;DHT22;24982;52.344;12.990;2023-05-10T18:38:14;19.20;99.90
9662;DHT22;24982;52.344;12.990;2023-05-10T18:41:16;19.20;99.90
9662;DHT22;24982;52.344;12.990;2023-05-10T18:44:18;19.20;99.90
9662;DHT22;24982;52.344;12.990;2023-05-10T18:47:21;19.10;99.90
9662;DHT22;24982;52.344;12.990;2023-05-10T18:50:23;19.10;99.90
9662;DHT22;24982;52.344;12.990;2023-05-10T18:53:26;19.00;99.90
9662;DHT22;24982;52.344;12.990;2023-05-10T18:56:28;19.00;99.90
9662;DHT22;24982;52.344;12.990;2023-05-10T18:59:30;18.90;99.90
9662;DHT22;24982;52.344;12.990;2023-05-10T19:02:32;18.90;99.90
9662;DHT22;24982;52.344;12.990;2023-05-10T19:05:34;18.80;99.90
9662;DHT22;24982;52.344;12.990;2023-05-10T19:08:38;18.80;99.90
9662;DHT22;24982;52.344;12.990;2023-05-10T19:11:40;18.70;99.90
9662;DHT22;24982;52.344;12.990;2023-05-10T19:14:43;18.50;99.90
9662;DHT22;24982;52.344;12.990;2023-05-10T19:17:45;18.60;99.90
9662;DHT22;24982;52.344;12.990;2023-05-10T19:20:47;18.60;99.90
9662;DHT22;24982;52.344;12.990;2023-05-10T19:23:51;18.60;99.90
9662;DHT22;24982;52.344;12.990;2023-05-10T19:26:53;18.60;99.90